createdAt,value
2022-12-23T00:01:52.843Z,96821.63
2022-12-23T00:05:54.988Z,96815.47
2022-12-23T00:09:57.041Z,96815.28
2022-12-23T00:14:21.643Z,96821.47
2022-12-23T00:18:24.093Z,96821.47
2022-12-23T00:22:44.647Z,96827.63
2022-12-23T00:26:46.661Z,96816.25
2022-12-23T00:30:53.751Z,96812.59
2022-12-23T00:34:55.793Z,96824.69
2022-12-23T00:39:17.561Z,96823.13
2022-12-23T00:43:19.634Z,96837.19
2022-12-23T00:47:40.258Z,96828.63
2022-12-23T00:51:42.310Z,96834.91
2022-12-23T00:55:46.371Z,96831.50
2022-12-23T00:59:48.445Z,96845.19
2022-12-23T01:04:09.086Z,96839.69
2022-12-23T01:08:11.996Z,96841.09
2022-12-23T01:12:14.557Z,96839.06
2022-12-23T01:16:17.911Z,96841.44
2022-12-23T01:20:20.229Z,96845.47
2022-12-23T01:24:22.821Z,96852.38
2022-12-23T01:28:25.524Z,96852.38
2022-12-23T01:32:27.562Z,96867.41
2022-12-23T01:36:29.680Z,96875.38
2022-12-23T01:40:40.687Z,96880.41
2022-12-23T01:45:00.487Z,96889.19
2022-12-23T01:49:02.523Z,96896.47
2022-12-23T01:53:23.393Z,96906.78
2022-12-23T01:57:25.933Z,96913.66
2022-12-23T02:01:48.260Z,96913.66
2022-12-23T02:05:51.497Z,96908.16
2022-12-23T02:09:53.652Z,96913.16
2022-12-23T02:14:33.652Z,96914.00
2022-12-23T02:19:01.083Z,96915.03
2022-12-23T02:23:28.405Z,96925.50
2022-12-23T02:27:37.606Z,96925.50
2022-12-23T02:32:03.395Z,96935.03
2022-12-23T02:36:15.141Z,96934.09
2022-12-23T02:40:31.801Z,96938.47
2022-12-23T02:44:44.167Z,96941.19
2022-12-23T02:48:53.477Z,96936.81
2022-12-23T02:53:00.507Z,96933.50
2022-12-23T02:57:05.790Z,96942.13
2022-12-23T03:01:10.193Z,96943.03
2022-12-23T03:05:24.820Z,96942.38
2022-12-23T03:09:43.494Z,96937.31
2022-12-23T03:14:21.894Z,96942.47
2022-12-23T03:18:52.186Z,96949.38
2022-12-23T03:23:11.089Z,96950.31
2022-12-23T03:27:36.058Z,96950.31
2022-12-23T03:31:41.086Z,96954.34
2022-12-23T03:35:55.692Z,96955.03
2022-12-23T03:40:04.788Z,96962.13
2022-12-23T03:44:13.306Z,96967.38
2022-12-23T03:48:15.247Z,96961.94
2022-12-23T03:52:22.410Z,96970.56
2022-12-23T03:56:31.192Z,96980.78
2022-12-23T04:00:36.348Z,96979.75
2022-12-23T04:04:47.986Z,96984.06
2022-12-23T04:08:50.720Z,96975.38
2022-12-23T04:12:53.119Z,96981.44
2022-12-23T04:16:58.237Z,97008.38
2022-12-23T04:21:00.303Z,97021.47
2022-12-23T04:25:02.764Z,97008.56
2022-12-23T04:29:05.213Z,96998.94
2022-12-23T04:33:07.390Z,96998.09
2022-12-23T04:37:10.718Z,96998.25
2022-12-23T04:41:12.827Z,97002.66
2022-12-23T04:45:15.097Z,96996.50
2022-12-23T04:49:17.105Z,96992.63
2022-12-23T04:53:19.145Z,96996.41
2022-12-23T04:57:21.210Z,97004.53
2022-12-23T05:01:23.231Z,96995.31
2022-12-23T05:05:25.307Z,96994.81
2022-12-23T05:09:27.379Z,97006.19
2022-12-23T05:13:29.409Z,97010.44
2022-12-23T05:17:31.449Z,97010.50
2022-12-23T05:21:33.691Z,97007.03
2022-12-23T05:25:37.536Z,97013.38
2022-12-23T05:29:39.586Z,97025.34
2022-12-23T05:33:41.913Z,97027.81
2022-12-23T05:37:43.983Z,97033.03
2022-12-23T05:41:46.016Z,97035.50
2022-12-23T05:45:49.050Z,97025.59
2022-12-23T05:49:51.106Z,97044.69
2022-12-23T05:53:53.167Z,97029.00
2022-12-23T05:57:55.187Z,97038.38
2022-12-23T06:01:57.502Z,97050.44
2022-12-23T06:05:59.611Z,97041.41
2022-12-23T06:10:01.680Z,97043.03
2022-12-23T06:14:03.692Z,97052.91
2022-12-23T06:18:05.775Z,97056.44
2022-12-23T06:22:07.935Z,97057.22
2022-12-23T06:26:09.937Z,97071.88
2022-12-23T06:30:12.575Z,97069.28
2022-12-23T06:34:14.743Z,97074.56
2022-12-23T06:38:16.765Z,97092.81
2022-12-23T06:42:18.749Z,97093.59
2022-12-23T06:46:20.867Z,97103.97
2022-12-23T06:50:22.991Z,97090.13
2022-12-23T06:54:25.001Z,97095.19
2022-12-23T06:58:27.141Z,97093.19
2022-12-23T07:02:29.253Z,97103.81
2022-12-23T07:06:31.774Z,97089.22
2022-12-23T07:10:34.503Z,97093.59
2022-12-23T07:14:36.499Z,97092.81
2022-12-23T07:18:38.486Z,97099.94
2022-12-23T07:22:40.482Z,97088.78
2022-12-23T07:26:42.492Z,97093.50
2022-12-23T07:30:44.563Z,97106.69
2022-12-23T07:34:46.553Z,97113.59
2022-12-23T07:38:51.903Z,97103.28
2022-12-23T07:42:58.035Z,97115.97
2022-12-23T07:47:01.117Z,97119.50
2022-12-23T07:51:04.576Z,97130.50
2022-12-23T07:55:06.879Z,97145.00
2022-12-23T07:59:08.893Z,97149.66
2022-12-23T08:03:11.646Z,97148.47
2022-12-23T08:07:13.838Z,97137.94
2022-12-23T08:11:16.134Z,97144.50
2022-12-23T08:15:18.152Z,97128.47
2022-12-23T08:19:20.184Z,97128.31
2022-12-23T08:23:24.932Z,97120.91
2022-12-23T08:27:27.308Z,97118.03
2022-12-23T08:31:33.221Z,97122.06
2022-12-23T08:35:35.232Z,97132.53
2022-12-23T08:39:37.267Z,97146.59
2022-12-23T08:43:39.721Z,97139.47
2022-12-23T08:47:41.713Z,97137.78
2022-12-23T08:51:43.803Z,97134.09
2022-12-23T08:55:47.577Z,97136.94
2022-12-23T08:59:49.694Z,97129.66
2022-12-23T09:03:52.452Z,97129.47
2022-12-23T09:07:54.813Z,97126.88
2022-12-23T09:11:56.833Z,97124.84
2022-12-23T09:15:58.880Z,97134.38
2022-12-23T09:20:00.883Z,97133.47
2022-12-23T09:24:02.979Z,97139.63
2022-12-23T09:28:06.820Z,97136.25
2022-12-23T09:32:09.021Z,97147.50
2022-12-23T09:36:11.024Z,97142.19
2022-12-23T09:40:15.507Z,97129.16
2022-12-23T09:44:47.616Z,97130.59
2022-12-23T09:49:02.531Z,97142.78
2022-12-23T09:53:07.960Z,97137.69
2022-12-23T09:57:22.971Z,97123.56
2022-12-23T10:01:35.488Z,97133.69
2022-12-23T10:05:51.957Z,97116.13
2022-12-23T10:09:56.470Z,97115.25
2022-12-23T10:14:01.877Z,97095.16
2022-12-23T10:18:12.132Z,97096.56
2022-12-23T10:22:27.177Z,97093.94
2022-12-23T10:26:34.495Z,97088.59
2022-12-23T10:31:17.129Z,97088.59
2022-12-23T10:35:21.800Z,97086.34
2022-12-23T10:39:50.075Z,97084.31
2022-12-23T10:44:10.971Z,97078.88
2022-12-23T10:48:50.682Z,97080.94
2022-12-23T10:52:55.559Z,97068.75
2022-12-23T10:56:58.403Z,97060.50
2022-12-23T11:01:09.781Z,97054.59
2022-12-23T11:05:22.245Z,97036.50
2022-12-23T11:09:30.464Z,97027.22
2022-12-23T11:13:32.393Z,97026.56
2022-12-23T11:17:35.064Z,97028.00
2022-12-23T11:21:37.065Z,97021.22
2022-12-23T11:25:41.426Z,96997.81
2022-12-23T11:29:54.109Z,96988.97
2022-12-23T11:33:59.840Z,96987.84
2022-12-23T11:38:02.793Z,96979.88
2022-12-23T11:42:12.556Z,96970.81
2022-12-23T11:46:34.932Z,96966.13
2022-12-23T11:50:40.717Z,96955.66
2022-12-23T11:54:54.354Z,96944.91
2022-12-23T11:59:08.299Z,96935.84
2022-12-23T12:03:19.844Z,96920.09
2022-12-23T12:07:22.192Z,96906.06
2022-12-23T12:11:34.954Z,96895.75
2022-12-23T12:16:07.687Z,96903.25
2022-12-23T12:20:26.608Z,96882.75
2022-12-23T12:24:41.112Z,96896.13
2022-12-23T12:28:47.104Z,96888.44
2022-12-23T12:33:01.486Z,96891.53
2022-12-23T12:37:10.120Z,96893.28
2022-12-23T12:41:21.811Z,96892.56
2022-12-23T12:45:32.091Z,96874.59
2022-12-23T12:49:43.144Z,96854.56
2022-12-23T12:54:05.650Z,96846.78
2022-12-23T12:58:23.200Z,96852.69
2022-12-23T13:02:40.500Z,96819.03
2022-12-23T13:07:10.022Z,96817.31
2022-12-23T13:11:28.003Z,96816.97
2022-12-23T13:15:51.407Z,96831.06
2022-12-23T13:20:17.240Z,96800.47
2022-12-23T13:24:41.178Z,96790.00
2022-12-23T13:29:01.168Z,96785.16
2022-12-23T13:33:38.568Z,96767.56
2022-12-23T13:38:08.380Z,96755.03
2022-12-23T13:42:18.978Z,96754.00
2022-12-23T13:46:34.837Z,96763.66
2022-12-23T13:50:45.670Z,96769.25
2022-12-23T13:55:08.413Z,96761.59
2022-12-23T13:59:11.577Z,96771.03
2022-12-23T14:03:24.757Z,96749.78
2022-12-23T14:07:30.232Z,96746.22
2022-12-23T14:11:34.076Z,96753.91
2022-12-23T14:15:56.267Z,96734.72
2022-12-23T14:20:30.713Z,96707.31
2022-12-23T14:24:56.765Z,96686.44
2022-12-23T14:29:10.892Z,96684.88
2022-12-23T14:33:24.986Z,96669.34
2022-12-23T14:37:27.318Z,96671.00
2022-12-23T14:42:05.786Z,96659.59
2022-12-23T14:46:35.184Z,96653.44
2022-12-23T14:50:40.524Z,96656.69
2022-12-23T14:54:55.248Z,96661.09
2022-12-23T14:59:07.492Z,96658.47
2022-12-23T15:03:11.687Z,96659.94
2022-12-23T15:07:35.468Z,96650.41
2022-12-23T15:11:40.430Z,96653.69
2022-12-23T15:15:57.400Z,96648.63
2022-12-23T15:20:15.933Z,96651.34
2022-12-23T15:24:22.102Z,96645.31
2022-12-23T15:28:34.412Z,96652.28
2022-12-23T15:32:41.061Z,96644.78
2022-12-23T15:36:44.264Z,96645.19
2022-12-23T15:40:59.276Z,96634.50
2022-12-23T15:45:01.394Z,96637.22
2022-12-23T15:49:03.456Z,96630.09
2022-12-23T15:53:07.587Z,96652.88
2022-12-23T15:57:18.015Z,96633.59
2022-12-23T16:01:22.068Z,96614.81
2022-12-23T16:05:35.812Z,96616.13
2022-12-23T16:09:37.824Z,96605.69
2022-12-23T16:13:47.130Z,96603.44
2022-12-23T16:17:50.585Z,96596.41
2022-12-23T16:21:52.731Z,96602.13
2022-12-23T16:25:54.800Z,96601.50
2022-12-23T16:30:01.487Z,96615.66
2022-12-23T16:34:06.905Z,96608.84
2022-12-23T16:38:23.841Z,96606.44
2022-12-23T16:42:25.819Z,96614.31
2022-12-23T16:46:31.607Z,96620.41
2022-12-23T16:50:33.728Z,96627.56
2022-12-23T16:54:35.711Z,96618.94
2022-12-23T16:58:37.699Z,96634.91
2022-12-23T17:02:39.784Z,96649.81
2022-12-23T17:06:42.037Z,96642.78
2022-12-23T17:10:46.930Z,96641.84
2022-12-23T17:14:48.935Z,96648.97
2022-12-23T17:18:52.945Z,96649.19
2022-12-23T17:22:59.463Z,96647.53
2022-12-23T17:27:01.537Z,96655.41
2022-12-23T17:31:08.616Z,96655.63
2022-12-23T17:35:15.244Z,96663.91
2022-12-23T17:39:17.483Z,96663.47
2022-12-23T17:43:19.571Z,96664.75
2022-12-23T17:47:22.452Z,96669.34
2022-12-23T17:51:25.864Z,96673.97
2022-12-23T17:55:29.021Z,96680.88
2022-12-23T17:59:31.042Z,96661.59
2022-12-23T18:03:33.044Z,96686.78
2022-12-23T18:07:35.032Z,96692.47
2022-12-23T18:11:41.821Z,96690.47
2022-12-23T18:15:44.398Z,96697.72
2022-12-23T18:19:46.456Z,96695.69
2022-12-23T18:23:48.722Z,96697.97
2022-12-23T18:27:52.632Z,96711.53
2022-12-23T18:31:55.195Z,96705.94
2022-12-23T18:35:57.430Z,96725.25
2022-12-23T18:39:59.478Z,96727.41
2022-12-23T18:44:01.463Z,96720.91
2022-12-23T18:48:08.609Z,96722.13
2022-12-23T18:52:14.551Z,96733.94
2022-12-23T18:56:21.018Z,96742.00
2022-12-23T19:00:25.509Z,96753.53
2022-12-23T19:04:27.535Z,96758.94
2022-12-23T19:08:29.554Z,96763.75
2022-12-23T19:12:31.560Z,96776.31
2022-12-23T19:16:34.776Z,96778.38
2022-12-23T19:20:36.781Z,96789.16
2022-12-23T19:24:51.820Z,96787.56
2022-12-23T19:29:00.914Z,96801.81
2022-12-23T19:33:02.973Z,96810.41
2022-12-23T19:37:05.054Z,96821.06
2022-12-23T19:41:07.718Z,96816.28
2022-12-23T19:45:10.792Z,96822.91
2022-12-23T19:49:17.754Z,96822.53
2022-12-23T19:53:21.851Z,96839.75
2022-12-23T19:57:24.136Z,96850.25
2022-12-23T20:01:26.630Z,96838.84
2022-12-23T20:05:28.668Z,96842.38
2022-12-23T20:09:30.681Z,96846.44
2022-12-23T20:13:33.107Z,96863.75
2022-12-23T20:17:35.192Z,96879.47
2022-12-23T20:21:37.821Z,96874.13
2022-12-23T20:25:39.851Z,96893.50
2022-12-23T20:29:41.858Z,96893.69
2022-12-23T20:33:43.869Z,96910.94
2022-12-23T20:37:45.871Z,96912.41
2022-12-23T20:41:47.850Z,96908.88
2022-12-23T20:45:50.632Z,96914.88
2022-12-23T20:49:52.619Z,96916.53
2022-12-23T20:53:59.651Z,96921.06
2022-12-23T20:58:21.776Z,96917.50
2022-12-23T21:02:25.343Z,96909.63
2022-12-23T21:06:29.041Z,96923.03
2022-12-23T21:10:31.066Z,96933.09
2022-12-23T21:14:33.090Z,96936.00
2022-12-23T21:18:35.510Z,96939.19
2022-12-23T21:22:37.570Z,96965.41
2022-12-23T21:26:39.640Z,96948.56
2022-12-23T21:30:43.879Z,96964.84
2022-12-23T21:34:45.901Z,96965.88
2022-12-23T21:38:49.327Z,96942.34
2022-12-23T21:42:51.327Z,96963.19
2022-12-23T21:46:53.341Z,96968.09
2022-12-23T21:50:55.496Z,96951.25
2022-12-23T21:54:57.726Z,96953.31
2022-12-23T21:59:03.908Z,96964.13
2022-12-23T22:03:05.998Z,96978.50
2022-12-23T22:07:08.032Z,96989.31
2022-12-23T22:11:16.877Z,96974.78
2022-12-23T22:15:19.260Z,96975.97
2022-12-23T22:19:21.276Z,96999.69
2022-12-23T22:23:23.309Z,97002.66
2022-12-23T22:27:25.335Z,97010.75
2022-12-23T22:31:34.314Z,97011.44
2022-12-23T22:35:36.382Z,97014.88
2022-12-23T22:39:38.391Z,97007.56
2022-12-23T22:43:40.385Z,97041.00
2022-12-23T22:47:42.508Z,97032.53
2022-12-23T22:51:44.997Z,97038.34
2022-12-23T22:55:56.558Z,97044.19
2022-12-23T22:59:58.591Z,97052.97
2022-12-23T23:04:02.227Z,97045.22
2022-12-23T23:08:04.395Z,97053.22
2022-12-23T23:12:06.471Z,97047.81
2022-12-23T23:16:08.669Z,97060.16
2022-12-23T23:20:10.898Z,97077.63
2022-12-23T23:24:13.032Z,97076.13
2022-12-23T23:28:15.182Z,97087.44
2022-12-23T23:32:17.287Z,97086.69
2022-12-23T23:36:19.420Z,97085.91
2022-12-23T23:40:21.661Z,97098.56
2022-12-23T23:44:23.706Z,97108.88
2022-12-23T23:48:25.723Z,97116.56
2022-12-23T23:52:28.910Z,97113.59
2022-12-23T23:56:37.504Z,97133.91
